createdAt,value
2022-11-26T00:04:44.913Z,98720.00
2022-11-26T00:09:49.296Z,98721.00
2022-11-26T00:14:52.570Z,98722.00
2022-11-26T00:19:55.379Z,98726.00
2022-11-26T00:24:58.534Z,98727.00
2022-11-26T00:30:01.327Z,98723.00
2022-11-26T00:35:04.223Z,98724.00
2022-11-26T00:40:07.995Z,98733.00
2022-11-26T00:45:31.286Z,98736.00
2022-11-26T00:50:39.046Z,98747.00
2022-11-26T00:55:58.062Z,98746.00
2022-11-26T01:01:01.512Z,98753.00
2022-11-26T01:11:56.782Z,98769.00
2022-11-26T01:17:25.821Z,98774.00
2022-11-26T01:22:54.189Z,98779.00
2022-11-26T01:28:04.371Z,98785.00
2022-11-26T01:33:28.331Z,98780.00
2022-11-26T01:38:40.599Z,98792.00
2022-11-26T01:44:02.418Z,98795.00
2022-11-26T01:49:38.609Z,98791.00
2022-11-26T01:54:44.309Z,98802.00
2022-11-26T01:59:53.062Z,98788.00
2022-11-26T02:05:30.414Z,98810.00
2022-11-26T02:10:41.258Z,98811.00
2022-11-26T02:16:24.418Z,98818.00
2022-11-26T02:21:28.466Z,98819.00
2022-11-26T02:27:20.155Z,98814.00
2022-11-26T02:38:13.825Z,98827.00
2022-11-26T02:43:33.768Z,98844.00
2022-11-26T02:48:55.696Z,98836.00
2022-11-26T02:54:08.414Z,98847.00
2022-11-26T02:59:17.722Z,98851.00
2022-11-26T03:04:44.831Z,98860.00
2022-11-26T03:09:58.580Z,98874.00
2022-11-26T03:15:04.020Z,98867.00
2022-11-26T03:20:08.335Z,98881.00
2022-11-26T03:25:11.742Z,98886.00
2022-11-26T03:30:14.740Z,98880.00
2022-11-26T03:35:17.639Z,98880.00
2022-11-26T03:40:20.796Z,98891.00
2022-11-26T03:45:26.008Z,98888.00
2022-11-26T03:50:29.067Z,98886.00
2022-11-26T03:55:31.833Z,98895.00
2022-11-26T04:00:34.620Z,98906.00
2022-11-26T04:05:48.870Z,98915.00
2022-11-26T04:10:57.632Z,98928.00
2022-11-26T04:16:22.449Z,98933.00
2022-11-26T04:21:25.883Z,98932.00
2022-11-26T04:26:42.917Z,98948.00
2022-11-26T04:32:10.777Z,98948.00
2022-11-26T04:37:25.059Z,98954.00
2022-11-26T04:42:42.846Z,98956.00
2022-11-26T04:48:06.283Z,98968.00
2022-11-26T04:53:32.651Z,98976.00
2022-11-26T04:58:39.257Z,98987.00
2022-11-26T05:03:59.922Z,98996.00
2022-11-26T05:09:21.858Z,98999.00
2022-11-26T05:14:42.500Z,99003.00
2022-11-26T05:19:52.587Z,99005.00
2022-11-26T05:25:00.326Z,99010.00
2022-11-26T05:30:04.182Z,99014.00
2022-11-26T05:35:07.259Z,99018.00
2022-11-26T05:40:13.582Z,99025.00
2022-11-26T05:45:16.702Z,99029.00
2022-11-26T05:50:19.539Z,99037.00
2022-11-26T05:55:34.794Z,99038.00
2022-11-26T06:00:37.660Z,99054.00
2022-11-26T06:06:18.719Z,99061.00
2022-11-26T06:11:40.624Z,99073.00
2022-11-26T06:16:57.331Z,99071.00
2022-11-26T06:22:16.395Z,99071.00
2022-11-26T06:27:56.446Z,99083.00
2022-11-26T06:33:08.291Z,99075.00
2022-11-26T06:38:25.644Z,99087.00
2022-11-26T06:43:36.757Z,99106.00
2022-11-26T06:48:57.459Z,99121.00
2022-11-26T06:54:08.180Z,99118.00
2022-11-26T06:59:18.624Z,99130.00
2022-11-26T07:04:42.288Z,99139.00
2022-11-26T07:09:46.315Z,99137.00
2022-11-26T07:14:49.573Z,99148.00
2022-11-26T07:19:52.589Z,99152.00
2022-11-26T07:24:55.777Z,99152.00
2022-11-26T07:30:01.454Z,99169.00
2022-11-26T07:35:04.742Z,99173.00
2022-11-26T07:40:11.111Z,99176.00
2022-11-26T07:45:13.850Z,99184.00
2022-11-26T07:50:16.716Z,99181.00
2022-11-26T07:55:19.489Z,99180.00
2022-11-26T08:00:34.694Z,99167.00
2022-11-26T08:11:23.024Z,99185.00
2022-11-26T08:16:28.780Z,99193.00
2022-11-26T08:21:59.666Z,99194.00
2022-11-26T08:27:26.088Z,99190.00
2022-11-26T08:33:17.577Z,99198.00
2022-11-26T08:38:27.143Z,99206.00
2022-11-26T08:44:06.181Z,99212.00
2022-11-26T08:49:23.565Z,99202.00
2022-11-26T08:54:27.222Z,99208.00
2022-11-26T08:59:30.015Z,99207.00
2022-11-26T09:04:50.956Z,99230.00
2022-11-26T09:09:58.262Z,99235.00
2022-11-26T09:15:01.065Z,99233.00
2022-11-26T09:20:04.259Z,99235.00
2022-11-26T09:25:07.498Z,99249.00
2022-11-26T09:30:10.767Z,99255.00
2022-11-26T09:35:13.581Z,99255.00
2022-11-26T09:40:20.876Z,99258.00
2022-11-26T09:45:45.388Z,99255.00
2022-11-26T09:51:27.868Z,99245.00
2022-11-26T09:56:52.624Z,99254.00
2022-11-26T10:02:22.076Z,99258.00
2022-11-26T10:07:36.445Z,99279.00
2022-11-26T10:13:23.344Z,99267.00
2022-11-26T10:19:16.431Z,99258.00
2022-11-26T10:24:32.121Z,99259.00
2022-11-26T10:29:39.538Z,99261.00
2022-11-26T10:34:51.150Z,99263.00
2022-11-26T10:40:17.812Z,99270.00
2022-11-26T10:45:24.108Z,99261.00
2022-11-26T10:56:22.664Z,99259.00
2022-11-26T11:01:56.180Z,99273.00
2022-11-26T11:07:44.229Z,99285.00
2022-11-26T11:13:16.743Z,99271.00
2022-11-26T11:18:36.916Z,99276.00
2022-11-26T11:29:12.154Z,99278.00
2022-11-26T11:34:39.239Z,99279.00
2022-11-26T11:39:42.686Z,99288.00
2022-11-26T11:44:49.403Z,99289.00
2022-11-26T11:50:21.218Z,99289.00
2022-11-26T11:55:42.265Z,99296.00
2022-11-26T12:00:57.236Z,99295.00
2022-11-26T12:06:37.496Z,99311.00
2022-11-26T12:12:10.623Z,99310.00
2022-11-26T12:18:04.350Z,99308.00
2022-11-26T12:23:35.795Z,99307.00
2022-11-26T12:29:11.528Z,99306.00
2022-11-26T12:34:39.829Z,99320.00
2022-11-26T12:39:53.795Z,99307.00
2022-11-26T12:45:07.279Z,99311.00
2022-11-26T12:50:35.270Z,99308.00
2022-11-26T12:56:09.003Z,99319.00
2022-11-26T13:01:28.212Z,99322.00
2022-11-26T13:06:50.891Z,99325.00
2022-11-26T13:12:26.789Z,99320.00
2022-11-26T13:18:03.470Z,99320.00
2022-11-26T13:23:34.073Z,99328.00
2022-11-26T13:29:24.232Z,99316.00
2022-11-26T13:34:39.952Z,99329.00
2022-11-26T13:40:03.665Z,99330.00
2022-11-26T13:45:18.391Z,99321.00
2022-11-26T13:50:38.083Z,99325.00
2022-11-26T13:56:23.027Z,99325.00
2022-11-26T14:01:53.249Z,99330.00
2022-11-26T14:07:28.680Z,99330.00
2022-11-26T14:13:02.844Z,99334.00
2022-11-26T14:18:08.652Z,99333.00
2022-11-26T14:23:41.426Z,99334.00
2022-11-26T14:29:06.136Z,99339.00
2022-11-26T14:34:26.325Z,99343.00
2022-11-26T14:39:36.279Z,99346.00
2022-11-26T14:44:39.451Z,99345.00
2022-11-26T14:50:01.161Z,99354.00
2022-11-26T14:55:15.838Z,99356.00
2022-11-26T15:00:24.935Z,99349.00
2022-11-26T15:05:50.887Z,99339.00
2022-11-26T15:11:25.430Z,99352.00
2022-11-26T15:22:47.855Z,99351.00
2022-11-26T15:28:11.631Z,99348.00
2022-11-26T15:33:36.573Z,99342.00
2022-11-26T15:39:28.318Z,99340.00
2022-11-26T15:44:40.547Z,99331.00
2022-11-26T15:49:52.213Z,99333.00
2022-11-26T15:55:12.449Z,99334.00
2022-11-26T16:00:23.607Z,99336.00
2022-11-26T16:05:54.057Z,99328.00
2022-11-26T16:11:29.413Z,99339.00
2022-11-26T16:22:30.998Z,99340.00
2022-11-26T16:27:51.354Z,99344.00
2022-11-26T16:33:10.917Z,99359.00
2022-11-26T16:38:40.631Z,99362.00
2022-11-26T16:44:08.432Z,99365.00
2022-11-26T16:49:21.023Z,99370.00
2022-11-26T16:54:32.327Z,99377.00
2022-11-26T16:59:43.584Z,99376.00
2022-11-26T17:10:37.809Z,99394.00
2022-11-26T17:15:42.182Z,99392.00
2022-11-26T17:20:47.367Z,99386.00
2022-11-26T17:26:19.526Z,99392.00
2022-11-26T17:31:42.746Z,99386.00
2022-11-26T17:37:04.183Z,99400.00
2022-11-26T17:42:33.617Z,99395.00
2022-11-26T17:48:08.588Z,99396.00
2022-11-26T17:53:27.430Z,99394.00
2022-11-26T17:58:42.719Z,99387.00
2022-11-26T18:04:05.637Z,99398.00
2022-11-26T18:09:17.710Z,99395.00
2022-11-26T18:14:26.032Z,99395.00
2022-11-26T18:19:30.104Z,99399.00
2022-11-26T18:24:37.204Z,99398.00
2022-11-26T18:29:42.605Z,99411.00
2022-11-26T18:34:45.606Z,99412.00
2022-11-26T18:39:48.403Z,99409.00
2022-11-26T18:44:51.190Z,99408.00
2022-11-26T18:49:54.047Z,99412.00
2022-11-26T18:54:56.792Z,99407.00
2022-11-26T18:59:59.590Z,99403.00
2022-11-26T19:05:17.276Z,99396.00
2022-11-26T19:10:22.411Z,99401.00
2022-11-26T19:15:25.291Z,99404.00
2022-11-26T19:20:31.409Z,99409.00
2022-11-26T19:25:34.392Z,99394.00
2022-11-26T19:30:37.264Z,99389.00
2022-11-26T19:35:40.498Z,99394.00
2022-11-26T19:40:43.266Z,99390.00
2022-11-26T19:45:46.072Z,99392.00
2022-11-26T19:50:57.748Z,99383.00
2022-11-26T19:56:24.197Z,99395.00
2022-11-26T20:01:30.856Z,99384.00
2022-11-26T20:06:54.958Z,99388.00
2022-11-26T20:17:48.325Z,99382.00
2022-11-26T20:22:51.823Z,99393.00
2022-11-26T20:28:06.238Z,99397.00
2022-11-26T20:33:25.974Z,99396.00
2022-11-26T20:38:36.789Z,99406.00
2022-11-26T20:43:39.875Z,99405.00
2022-11-26T20:48:57.936Z,99408.00
2022-11-26T20:54:10.281Z,99405.00
2022-11-26T20:59:19.923Z,99398.00
2022-11-26T21:04:51.410Z,99391.00
2022-11-26T21:09:54.549Z,99393.00
2022-11-26T21:14:57.326Z,99399.00
2022-11-26T21:20:00.046Z,99396.00
2022-11-26T21:25:02.835Z,99392.00
2022-11-26T21:30:06.318Z,99392.00
2022-11-26T21:35:10.551Z,99387.00
2022-11-26T21:40:13.748Z,99389.00
2022-11-26T21:45:16.583Z,99394.00
2022-11-26T21:50:20.220Z,99392.00
2022-11-26T21:55:23.317Z,99399.00
2022-11-26T22:00:29.391Z,99400.00
2022-11-26T22:05:51.450Z,99398.00
2022-11-26T22:11:08.520Z,99397.00
2022-11-26T22:16:30.324Z,99403.00
2022-11-26T22:21:58.079Z,99406.00
2022-11-26T22:27:15.936Z,99396.00
2022-11-26T22:32:49.887Z,99403.00
2022-11-26T22:38:03.119Z,99402.00
2022-11-26T22:43:12.281Z,99404.00
2022-11-26T22:48:28.359Z,99406.00
2022-11-26T22:53:37.114Z,99400.00
2022-11-26T22:58:49.938Z,99409.00
2022-11-26T23:04:07.273Z,99403.00
2022-11-26T23:09:41.252Z,99408.00
2022-11-26T23:14:50.200Z,99402.00
2022-11-26T23:19:52.990Z,99406.00
2022-11-26T23:24:55.812Z,99406.00
2022-11-26T23:30:00.044Z,99393.00
2022-11-26T23:35:03.275Z,99392.00
2022-11-26T23:40:08.764Z,99384.00
2022-11-26T23:45:11.912Z,99385.00
2022-11-26T23:50:15.436Z,99383.00
2022-11-26T23:55:18.287Z,99375.00
